sensor_id;sensor_type;location;lat;lon;timestamp;P1;durP1;ratioP1;P2;durP2;ratioP2
83719;SDS011;73702;49.668;8.544;2024-03-07T00:01:53;61.92;;;20.60;;
83719;SDS011;73702;49.668;8.544;2024-03-07T00:04:19;53.47;;;20.77;;
83719;SDS011;73702;49.668;8.544;2024-03-07T00:06:46;47.05;;;19.38;;
83719;SDS011;73702;49.668;8.544;2024-03-07T00:09:12;50.75;;;20.10;;
83719;SDS011;73702;49.668;8.544;2024-03-07T00:11:38;49.55;;;18.52;;
83719;SDS011;73702;49.668;8.544;2024-03-07T00:14:05;65.95;;;22.52;;
83719;SDS011;73702;49.668;8.544;2024-03-07T00:16:32;62.35;;;23.92;;
83719;SDS011;73702;49.668;8.544;2024-03-07T00:18:59;79.05;;;25.92;;
83719;SDS011;73702;49.668;8.544;2024-03-07T00:21:26;61.28;;;26.48;;
83719;SDS011;73702;49.668;8.544;2024-03-07T00:23:52;62.17;;;23.67;;
83719;SDS011;73702;49.668;8.544;2024-03-07T00:26:19;66.25;;;22.48;;
83719;SDS011;73702;49.668;8.544;2024-03-07T00:28:45;48.28;;;18.98;;
83719;SDS011;73702;49.668;8.544;2024-03-07T00:31:11;46.35;;;19.25;;
83719;SDS011;73702;49.668;8.544;2024-03-07T00:33:38;60.97;;;19.90;;
83719;SDS011;73702;49.668;8.544;2024-03-07T00:36:24;53.28;;;20.17;;
83719;SDS011;73702;49.668;8.544;2024-03-07T00:38:51;58.33;;;19.73;;
83719;SDS011;73702;49.668;8.544;2024-03-07T00:41:18;48.45;;;18.98;;
83719;SDS011;73702;49.668;8.544;2024-03-07T00:43:45;54.60;;;18.90;;
83719;SDS011;73702;49.668;8.544;2024-03-07T00:46:12;52.15;;;18.48;;
83719;SDS011;73702;49.668;8.544;2024-03-07T00:48:38;53.28;;;20.35;;
83719;SDS011;73702;49.668;8.544;2024-03-07T00:51:05;63.40;;;20.05;;
83719;SDS011;73702;49.668;8.544;2024-03-07T00:53:31;49.53;;;19.02;;
83719;SDS011;73702;49.668;8.544;2024-03-07T00:55:58;57.72;;;19.35;;
83719;SDS011;73702;49.668;8.544;2024-03-07T00:58:25;50.58;;;19.48;;
83719;SDS011;73702;49.668;8.544;2024-03-07T01:00:51;63.88;;;20.98;;
83719;SDS011;73702;49.668;8.544;2024-03-07T01:03:20;53.95;;;20.52;;
83719;SDS011;73702;49.668;8.544;2024-03-07T01:05:46;49.30;;;18.60;;
83719;SDS011;73702;49.668;8.544;2024-03-07T01:08:13;48.33;;;19.55;;
83719;SDS011;73702;49.668;8.544;2024-03-07T01:10:39;59.15;;;20.05;;
83719;SDS011;73702;49.668;8.544;2024-03-07T01:13:06;59.00;;;20.48;;
83719;SDS011;73702;49.668;8.544;2024-03-07T01:15:32;56.60;;;20.85;;
83719;SDS011;73702;49.668;8.544;2024-03-07T01:17:58;60.45;;;20.95;;
83719;SDS011;73702;49.668;8.544;2024-03-07T01:20:25;60.85;;;20.30;;
83719;SDS011;73702;49.668;8.544;2024-03-07T01:22:51;49.20;;;20.17;;
83719;SDS011;73702;49.668;8.544;2024-03-07T01:25:18;53.83;;;20.30;;
83719;SDS011;73702;49.668;8.544;2024-03-07T01:27:44;48.88;;;18.30;;
83719;SDS011;73702;49.668;8.544;2024-03-07T01:30:11;53.55;;;19.55;;
83719;SDS011;73702;49.668;8.544;2024-03-07T01:32:37;55.60;;;20.02;;
83719;SDS011;73702;49.668;8.544;2024-03-07T01:35:04;58.70;;;20.98;;
83719;SDS011;73702;49.668;8.544;2024-03-07T01:37:31;50.28;;;18.63;;
83719;SDS011;73702;49.668;8.544;2024-03-07T01:39:57;68.05;;;20.65;;
83719;SDS011;73702;49.668;8.544;2024-03-07T01:42:23;59.88;;;20.40;;
83719;SDS011;73702;49.668;8.544;2024-03-07T01:44:50;58.78;;;20.50;;
83719;SDS011;73702;49.668;8.544;2024-03-07T01:47:17;59.67;;;20.85;;
83719;SDS011;73702;49.668;8.544;2024-03-07T01:49:43;64.38;;;21.02;;
83719;SDS011;73702;49.668;8.544;2024-03-07T01:52:10;61.72;;;20.10;;
83719;SDS011;73702;49.668;8.544;2024-03-07T01:54:37;50.80;;;19.65;;
83719;SDS011;73702;49.668;8.544;2024-03-07T01:57:04;66.20;;;21.63;;
83719;SDS011;73702;49.668;8.544;2024-03-07T01:59:31;62.92;;;22.00;;
83719;SDS011;73702;49.668;8.544;2024-03-07T02:01:59;70.32;;;21.50;;
83719;SDS011;73702;49.668;8.544;2024-03-07T02:04:25;56.65;;;19.40;;
83719;SDS011;73702;49.668;8.544;2024-03-07T02:06:51;58.20;;;20.52;;
83719;SDS011;73702;49.668;8.544;2024-03-07T02:09:18;58.22;;;20.60;;
83719;SDS011;73702;49.668;8.544;2024-03-07T02:11:46;61.97;;;21.17;;
83719;SDS011;73702;49.668;8.544;2024-03-07T02:14:13;48.25;;;19.45;;
83719;SDS011;73702;49.668;8.544;2024-03-07T02:16:39;64.20;;;20.17;;
83719;SDS011;73702;49.668;8.544;2024-03-07T02:19:06;56.65;;;20.00;;
83719;SDS011;73702;49.668;8.544;2024-03-07T02:21:34;57.00;;;20.48;;
83719;SDS011;73702;49.668;8.544;2024-03-07T02:24:00;66.47;;;21.63;;
83719;SDS011;73702;49.668;8.544;2024-03-07T02:26:27;53.78;;;20.02;;
83719;SDS011;73702;49.668;8.544;2024-03-07T02:28:54;52.53;;;19.98;;
83719;SDS011;73702;49.668;8.544;2024-03-07T02:31:20;58.80;;;21.60;;
83719;SDS011;73702;49.668;8.544;2024-03-07T02:33:46;55.20;;;21.45;;
83719;SDS011;73702;49.668;8.544;2024-03-07T02:36:13;61.67;;;21.42;;
83719;SDS011;73702;49.668;8.544;2024-03-07T02:38:39;63.58;;;21.27;;
83719;SDS011;73702;49.668;8.544;2024-03-07T02:41:06;60.08;;;21.35;;
83719;SDS011;73702;49.668;8.544;2024-03-07T02:43:32;66.13;;;21.73;;
83719;SDS011;73702;49.668;8.544;2024-03-07T02:45:59;60.30;;;20.75;;
83719;SDS011;73702;49.668;8.544;2024-03-07T02:48:25;69.50;;;21.05;;
83719;SDS011;73702;49.668;8.544;2024-03-07T02:50:51;54.03;;;21.20;;
83719;SDS011;73702;49.668;8.544;2024-03-07T02:53:18;64.40;;;20.77;;
83719;SDS011;73702;49.668;8.544;2024-03-07T02:55:45;52.55;;;20.45;;
83719;SDS011;73702;49.668;8.544;2024-03-07T02:58:11;70.95;;;21.48;;
83719;SDS011;73702;49.668;8.544;2024-03-07T03:00:38;75.15;;;21.45;;
83719;SDS011;73702;49.668;8.544;2024-03-07T03:03:04;65.82;;;21.73;;
83719;SDS011;73702;49.668;8.544;2024-03-07T03:05:31;59.60;;;19.95;;
83719;SDS011;73702;49.668;8.544;2024-03-07T03:07:57;57.42;;;20.63;;
83719;SDS011;73702;49.668;8.544;2024-03-07T03:10:24;55.85;;;19.95;;
83719;SDS011;73702;49.668;8.544;2024-03-07T03:12:52;61.55;;;21.90;;
83719;SDS011;73702;49.668;8.544;2024-03-07T03:15:19;72.97;;;21.88;;
83719;SDS011;73702;49.668;8.544;2024-03-07T03:17:48;52.47;;;20.02;;
83719;SDS011;73702;49.668;8.544;2024-03-07T03:20:15;64.70;;;23.67;;
83719;SDS011;73702;49.668;8.544;2024-03-07T03:22:41;61.40;;;21.60;;
83719;SDS011;73702;49.668;8.544;2024-03-07T03:25:08;75.25;;;22.10;;
83719;SDS011;73702;49.668;8.544;2024-03-07T03:27:34;57.10;;;20.15;;
83719;SDS011;73702;49.668;8.544;2024-03-07T03:30:01;57.45;;;21.42;;
83719;SDS011;73702;49.668;8.544;2024-03-07T03:32:27;62.95;;;20.52;;
83719;SDS011;73702;49.668;8.544;2024-03-07T03:34:53;55.92;;;21.00;;
83719;SDS011;73702;49.668;8.544;2024-03-07T03:37:20;65.60;;;20.33;;
83719;SDS011;73702;49.668;8.544;2024-03-07T03:39:46;54.25;;;20.30;;
83719;SDS011;73702;49.668;8.544;2024-03-07T03:42:13;66.47;;;21.05;;
83719;SDS011;73702;49.668;8.544;2024-03-07T03:44:39;55.03;;;20.35;;
83719;SDS011;73702;49.668;8.544;2024-03-07T03:47:06;69.32;;;21.73;;
83719;SDS011;73702;49.668;8.544;2024-03-07T03:49:32;65.10;;;20.25;;
83719;SDS011;73702;49.668;8.544;2024-03-07T03:51:59;56.60;;;20.52;;
83719;SDS011;73702;49.668;8.544;2024-03-07T03:54:25;51.53;;;20.15;;
83719;SDS011;73702;49.668;8.544;2024-03-07T03:56:51;65.78;;;21.92;;
83719;SDS011;73702;49.668;8.544;2024-03-07T03:59:18;56.80;;;19.95;;
83719;SDS011;73702;49.668;8.544;2024-03-07T04:01:44;69.57;;;20.63;;
83719;SDS011;73702;49.668;8.544;2024-03-07T04:04:11;71.35;;;21.55;;
83719;SDS011;73702;49.668;8.544;2024-03-07T04:06:38;61.50;;;21.90;;
83719;SDS011;73702;49.668;8.544;2024-03-07T04:09:04;55.90;;;20.50;;
83719;SDS011;73702;49.668;8.544;2024-03-07T04:11:30;68.07;;;22.20;;
83719;SDS011;73702;49.668;8.544;2024-03-07T04:13:56;55.25;;;20.23;;
83719;SDS011;73702;49.668;8.544;2024-03-07T04:16:23;54.47;;;19.98;;
83719;SDS011;73702;49.668;8.544;2024-03-07T04:18:49;66.70;;;20.75;;
83719;SDS011;73702;49.668;8.544;2024-03-07T04:21:15;72.22;;;21.55;;
83719;SDS011;73702;49.668;8.544;2024-03-07T04:23:42;59.83;;;20.52;;
83719;SDS011;73702;49.668;8.544;2024-03-07T04:26:08;69.95;;;20.98;;
83719;SDS011;73702;49.668;8.544;2024-03-07T04:28:35;58.40;;;19.52;;
83719;SDS011;73702;49.668;8.544;2024-03-07T04:31:01;70.03;;;20.17;;
83719;SDS011;73702;49.668;8.544;2024-03-07T04:33:28;59.10;;;19.30;;
83719;SDS011;73702;49.668;8.544;2024-03-07T04:35:54;73.70;;;22.02;;
83719;SDS011;73702;49.668;8.544;2024-03-07T04:38:21;73.63;;;22.25;;
83719;SDS011;73702;49.668;8.544;2024-03-07T04:40:48;62.08;;;20.55;;
83719;SDS011;73702;49.668;8.544;2024-03-07T04:43:15;69.43;;;21.10;;
83719;SDS011;73702;49.668;8.544;2024-03-07T04:45:41;57.08;;;20.13;;
83719;SDS011;73702;49.668;8.544;2024-03-07T04:48:07;63.05;;;19.10;;
83719;SDS011;73702;49.668;8.544;2024-03-07T04:50:34;60.25;;;19.02;;
83719;SDS011;73702;49.668;8.544;2024-03-07T04:53:00;52.35;;;18.23;;
83719;SDS011;73702;49.668;8.544;2024-03-07T04:55:27;54.80;;;18.48;;
83719;SDS011;73702;49.668;8.544;2024-03-07T04:57:53;51.17;;;17.63;;
83719;SDS011;73702;49.668;8.544;2024-03-07T05:00:19;79.43;;;20.35;;
83719;SDS011;73702;49.668;8.544;2024-03-07T05:02:47;51.85;;;17.92;;
83719;SDS011;73702;49.668;8.544;2024-03-07T05:05:14;63.70;;;18.88;;
83719;SDS011;73702;49.668;8.544;2024-03-07T05:07:41;59.45;;;19.98;;
83719;SDS011;73702;49.668;8.544;2024-03-07T05:10:07;54.65;;;18.77;;
83719;SDS011;73702;49.668;8.544;2024-03-07T05:12:34;60.70;;;21.00;;
83719;SDS011;73702;49.668;8.544;2024-03-07T05:15:00;50.28;;;19.23;;
83719;SDS011;73702;49.668;8.544;2024-03-07T05:17:27;54.88;;;18.73;;
83719;SDS011;73702;49.668;8.544;2024-03-07T05:19:53;62.00;;;20.08;;
83719;SDS011;73702;49.668;8.544;2024-03-07T05:22:20;71.70;;;20.63;;
83719;SDS011;73702;49.668;8.544;2024-03-07T05:24:46;53.75;;;18.88;;
83719;SDS011;73702;49.668;8.544;2024-03-07T05:27:12;63.38;;;19.13;;
83719;SDS011;73702;49.668;8.544;2024-03-07T05:29:39;51.47;;;17.20;;
83719;SDS011;73702;49.668;8.544;2024-03-07T05:32:24;55.55;;;18.67;;
83719;SDS011;73702;49.668;8.544;2024-03-07T05:34:51;66.93;;;18.58;;
83719;SDS011;73702;49.668;8.544;2024-03-07T05:37:18;73.82;;;19.20;;
83719;SDS011;73702;49.668;8.544;2024-03-07T05:39:45;54.80;;;17.50;;
83719;SDS011;73702;49.668;8.544;2024-03-07T05:42:11;61.03;;;18.50;;
83719;SDS011;73702;49.668;8.544;2024-03-07T05:44:37;54.03;;;19.15;;
83719;SDS011;73702;49.668;8.544;2024-03-07T05:47:04;56.40;;;19.25;;
83719;SDS011;73702;49.668;8.544;2024-03-07T05:49:30;53.70;;;18.65;;
83719;SDS011;73702;49.668;8.544;2024-03-07T05:51:57;55.88;;;18.85;;
83719;SDS011;73702;49.668;8.544;2024-03-07T05:54:23;66.43;;;19.80;;
83719;SDS011;73702;49.668;8.544;2024-03-07T05:56:49;56.38;;;19.00;;
83719;SDS011;73702;49.668;8.544;2024-03-07T05:59:16;67.00;;;20.60;;
83719;SDS011;73702;49.668;8.544;2024-03-07T06:01:43;61.63;;;20.20;;
83719;SDS011;73702;49.668;8.544;2024-03-07T06:04:09;51.15;;;17.73;;
83719;SDS011;73702;49.668;8.544;2024-03-07T06:06:36;58.55;;;18.70;;
83719;SDS011;73702;49.668;8.544;2024-03-07T06:09:04;50.33;;;17.35;;
83719;SDS011;73702;49.668;8.544;2024-03-07T06:11:30;50.67;;;17.48;;
83719;SDS011;73702;49.668;8.544;2024-03-07T06:13:57;59.13;;;20.63;;
83719;SDS011;73702;49.668;8.544;2024-03-07T06:16:23;76.72;;;20.80;;
83719;SDS011;73702;49.668;8.544;2024-03-07T06:18:49;60.53;;;19.88;;
83719;SDS011;73702;49.668;8.544;2024-03-07T06:21:16;65.65;;;18.98;;
83719;SDS011;73702;49.668;8.544;2024-03-07T06:23:42;58.28;;;19.05;;
83719;SDS011;73702;49.668;8.544;2024-03-07T06:26:12;58.50;;;19.27;;
83719;SDS011;73702;49.668;8.544;2024-03-07T06:28:39;58.30;;;21.58;;
83719;SDS011;73702;49.668;8.544;2024-03-07T06:31:06;57.50;;;19.25;;
83719;SDS011;73702;49.668;8.544;2024-03-07T06:33:33;56.55;;;19.05;;
83719;SDS011;73702;49.668;8.544;2024-03-07T06:35:59;61.40;;;18.85;;
83719;SDS011;73702;49.668;8.544;2024-03-07T06:38:26;66.05;;;19.60;;
83719;SDS011;73702;49.668;8.544;2024-03-07T06:40:52;55.70;;;18.55;;
83719;SDS011;73702;49.668;8.544;2024-03-07T06:43:19;66.32;;;19.83;;
83719;SDS011;73702;49.668;8.544;2024-03-07T06:45:45;56.17;;;18.08;;
83719;SDS011;73702;49.668;8.544;2024-03-07T06:48:12;48.35;;;17.70;;
83719;SDS011;73702;49.668;8.544;2024-03-07T06:50:39;53.78;;;17.30;;
83719;SDS011;73702;49.668;8.544;2024-03-07T06:53:06;50.30;;;17.58;;
83719;SDS011;73702;49.668;8.544;2024-03-07T06:55:32;58.10;;;18.13;;
83719;SDS011;73702;49.668;8.544;2024-03-07T06:57:59;59.85;;;18.52;;
83719;SDS011;73702;49.668;8.544;2024-03-07T07:00:26;65.38;;;19.65;;
83719;SDS011;73702;49.668;8.544;2024-03-07T07:02:52;54.97;;;18.02;;
83719;SDS011;73702;49.668;8.544;2024-03-07T07:05:19;64.95;;;18.40;;
83719;SDS011;73702;49.668;8.544;2024-03-07T07:07:45;53.13;;;17.05;;
83719;SDS011;73702;49.668;8.544;2024-03-07T07:10:12;44.13;;;16.33;;
83719;SDS011;73702;49.668;8.544;2024-03-07T07:12:39;49.85;;;17.75;;
83719;SDS011;73702;49.668;8.544;2024-03-07T07:15:06;51.90;;;16.10;;
83719;SDS011;73702;49.668;8.544;2024-03-07T07:17:32;57.83;;;17.20;;
83719;SDS011;73702;49.668;8.544;2024-03-07T07:19:59;55.88;;;18.05;;
83719;SDS011;73702;49.668;8.544;2024-03-07T07:22:25;64.00;;;18.70;;
83719;SDS011;73702;49.668;8.544;2024-03-07T07:24:52;54.97;;;17.33;;
83719;SDS011;73702;49.668;8.544;2024-03-07T07:27:18;51.85;;;15.90;;
83719;SDS011;73702;49.668;8.544;2024-03-07T07:29:45;49.40;;;15.27;;
83719;SDS011;73702;49.668;8.544;2024-03-07T07:32:11;37.50;;;13.88;;
83719;SDS011;73702;49.668;8.544;2024-03-07T07:34:38;46.95;;;15.18;;
83719;SDS011;73702;49.668;8.544;2024-03-07T07:37:04;40.42;;;14.20;;
83719;SDS011;73702;49.668;8.544;2024-03-07T07:39:31;49.72;;;14.05;;
83719;SDS011;73702;49.668;8.544;2024-03-07T07:41:57;38.15;;;14.40;;
83719;SDS011;73702;49.668;8.544;2024-03-07T07:44:24;42.30;;;12.63;;
83719;SDS011;73702;49.668;8.544;2024-03-07T07:46:50;32.97;;;11.70;;
83719;SDS011;73702;49.668;8.544;2024-03-07T07:49:17;37.65;;;13.15;;
83719;SDS011;73702;49.668;8.544;2024-03-07T07:51:43;32.40;;;12.20;;
83719;SDS011;73702;49.668;8.544;2024-03-07T07:54:10;42.05;;;14.43;;
83719;SDS011;73702;49.668;8.544;2024-03-07T07:56:36;45.72;;;13.52;;
83719;SDS011;73702;49.668;8.544;2024-03-07T07:59:03;32.63;;;12.02;;
83719;SDS011;73702;49.668;8.544;2024-03-07T08:01:29;44.05;;;13.30;;
83719;SDS011;73702;49.668;8.544;2024-03-07T08:03:55;39.55;;;12.07;;
83719;SDS011;73702;49.668;8.544;2024-03-07T08:06:22;47.97;;;12.82;;
83719;SDS011;73702;49.668;8.544;2024-03-07T08:08:48;40.63;;;12.90;;
83719;SDS011;73702;49.668;8.544;2024-03-07T08:11:14;29.85;;;9.52;;
83719;SDS011;73702;49.668;8.544;2024-03-07T08:13:41;43.42;;;12.05;;
83719;SDS011;73702;49.668;8.544;2024-03-07T08:16:07;32.35;;;10.18;;
83719;SDS011;73702;49.668;8.544;2024-03-07T08:18:35;55.58;;;14.07;;
83719;SDS011;73702;49.668;8.544;2024-03-07T08:21:02;31.42;;;9.75;;
83719;SDS011;73702;49.668;8.544;2024-03-07T08:23:28;59.88;;;13.88;;
83719;SDS011;73702;49.668;8.544;2024-03-07T08:25:55;36.05;;;11.05;;
83719;SDS011;73702;49.668;8.544;2024-03-07T08:28:21;36.13;;;10.57;;
83719;SDS011;73702;49.668;8.544;2024-03-07T08:30:47;32.42;;;9.75;;
83719;SDS011;73702;49.668;8.544;2024-03-07T08:33:14;38.10;;;10.48;;
83719;SDS011;73702;49.668;8.544;2024-03-07T08:35:40;36.35;;;9.88;;
83719;SDS011;73702;49.668;8.544;2024-03-07T08:38:07;29.52;;;10.18;;
83719;SDS011;73702;49.668;8.544;2024-03-07T08:40:33;49.17;;;12.15;;
83719;SDS011;73702;49.668;8.544;2024-03-07T08:43:00;49.30;;;10.63;;
83719;SDS011;73702;49.668;8.544;2024-03-07T08:45:27;28.98;;;10.45;;
83719;SDS011;73702;49.668;8.544;2024-03-07T08:47:54;25.15;;;8.20;;
83719;SDS011;73702;49.668;8.544;2024-03-07T08:50:22;30.67;;;9.13;;
83719;SDS011;73702;49.668;8.544;2024-03-07T08:52:53;30.23;;;10.02;;
83719;SDS011;73702;49.668;8.544;2024-03-07T08:55:20;27.15;;;6.97;;
83719;SDS011;73702;49.668;8.544;2024-03-07T08:57:46;94.57;;;13.85;;
83719;SDS011;73702;49.668;8.544;2024-03-07T09:00:13;37.08;;;9.60;;
83719;SDS011;73702;49.668;8.544;2024-03-07T09:02:39;23.38;;;8.00;;
83719;SDS011;73702;49.668;8.544;2024-03-07T09:05:06;29.70;;;8.95;;
83719;SDS011;73702;49.668;8.544;2024-03-07T09:07:32;34.80;;;8.85;;
83719;SDS011;73702;49.668;8.544;2024-03-07T09:09:59;32.22;;;10.38;;
83719;SDS011;73702;49.668;8.544;2024-03-07T09:12:25;22.50;;;8.95;;
83719;SDS011;73702;49.668;8.544;2024-03-07T09:14:52;31.88;;;9.88;;
83719;SDS011;73702;49.668;8.544;2024-03-07T09:17:19;28.75;;;8.98;;
83719;SDS011;73702;49.668;8.544;2024-03-07T09:19:46;35.40;;;9.75;;
83719;SDS011;73702;49.668;8.544;2024-03-07T09:22:12;24.98;;;8.55;;
83719;SDS011;73702;49.668;8.544;2024-03-07T09:24:39;29.77;;;9.38;;
83719;SDS011;73702;49.668;8.544;2024-03-07T09:27:05;22.77;;;7.63;;
83719;SDS011;73702;49.668;8.544;2024-03-07T09:29:32;53.72;;;11.68;;
83719;SDS011;73702;49.668;8.544;2024-03-07T09:31:59;31.13;;;9.25;;
83719;SDS011;73702;49.668;8.544;2024-03-07T09:34:25;32.38;;;10.63;;
83719;SDS011;73702;49.668;8.544;2024-03-07T09:36:51;27.35;;;8.35;;
83719;SDS011;73702;49.668;8.544;2024-03-07T09:39:18;32.65;;;10.38;;
83719;SDS011;73702;49.668;8.544;2024-03-07T09:41:44;25.00;;;9.38;;
83719;SDS011;73702;49.668;8.544;2024-03-07T09:44:14;43.58;;;11.32;;
83719;SDS011;73702;49.668;8.544;2024-03-07T09:46:41;52.22;;;12.20;;
83719;SDS011;73702;49.668;8.544;2024-03-07T09:49:07;24.75;;;9.80;;
83719;SDS011;73702;49.668;8.544;2024-03-07T09:51:36;33.03;;;10.25;;
83719;SDS011;73702;49.668;8.544;2024-03-07T09:54:02;28.33;;;10.38;;
83719;SDS011;73702;49.668;8.544;2024-03-07T09:56:29;46.42;;;11.88;;
83719;SDS011;73702;49.668;8.544;2024-03-07T09:58:57;29.98;;;10.25;;
83719;SDS011;73702;49.668;8.544;2024-03-07T10:01:25;32.53;;;10.73;;
83719;SDS011;73702;49.668;8.544;2024-03-07T10:03:58;43.42;;;10.88;;
83719;SDS011;73702;49.668;8.544;2024-03-07T10:06:24;38.35;;;10.20;;
83719;SDS011;73702;49.668;8.544;2024-03-07T10:08:50;27.20;;;9.77;;
83719;SDS011;73702;49.668;8.544;2024-03-07T10:11:17;31.40;;;10.38;;
83719;SDS011;73702;49.668;8.544;2024-03-07T10:13:44;39.33;;;11.10;;
83719;SDS011;73702;49.668;8.544;2024-03-07T10:16:10;34.88;;;10.20;;
83719;SDS011;73702;49.668;8.544;2024-03-07T10:18:43;50.55;;;11.00;;
83719;SDS011;73702;49.668;8.544;2024-03-07T10:21:10;37.08;;;11.38;;
83719;SDS011;73702;49.668;8.544;2024-03-07T10:23:36;41.45;;;10.93;;
83719;SDS011;73702;49.668;8.544;2024-03-07T10:26:04;34.70;;;10.73;;
83719;SDS011;73702;49.668;8.544;2024-03-07T10:30:56;41.63;;;11.65;;
83719;SDS011;73702;49.668;8.544;2024-03-07T10:33:26;33.83;;;10.27;;
83719;SDS011;73702;49.668;8.544;2024-03-07T10:35:52;35.97;;;11.23;;
83719;SDS011;73702;49.668;8.544;2024-03-07T10:38:19;31.95;;;11.68;;
83719;SDS011;73702;49.668;8.544;2024-03-07T10:40:52;33.72;;;10.88;;
83719;SDS011;73702;49.668;8.544;2024-03-07T10:43:19;32.53;;;12.02;;
83719;SDS011;73702;49.668;8.544;2024-03-07T10:45:47;31.05;;;11.25;;
83719;SDS011;73702;49.668;8.544;2024-03-07T10:48:18;34.08;;;10.70;;
83719;SDS011;73702;49.668;8.544;2024-03-07T10:53:24;27.95;;;8.23;;
83719;SDS011;73702;49.668;8.544;2024-03-07T10:58:37;34.15;;;10.85;;
83719;SDS011;73702;49.668;8.544;2024-03-07T11:01:07;28.00;;;10.65;;
83719;SDS011;73702;49.668;8.544;2024-03-07T11:03:36;50.47;;;12.55;;
83719;SDS011;73702;49.668;8.544;2024-03-07T11:06:03;40.05;;;11.23;;
83719;SDS011;73702;49.668;8.544;2024-03-07T11:08:29;35.08;;;11.65;;
83719;SDS011;73702;49.668;8.544;2024-03-07T11:10:56;36.63;;;11.52;;
83719;SDS011;73702;49.668;8.544;2024-03-07T11:13:22;33.40;;;11.20;;
83719;SDS011;73702;49.668;8.544;2024-03-07T11:15:49;37.10;;;11.32;;
83719;SDS011;73702;49.668;8.544;2024-03-07T11:18:16;40.67;;;11.98;;
83719;SDS011;73702;49.668;8.544;2024-03-07T11:20:43;54.63;;;14.20;;
83719;SDS011;73702;49.668;8.544;2024-03-07T11:23:31;30.52;;;10.82;;
83719;SDS011;73702;49.668;8.544;2024-03-07T11:26:02;35.42;;;11.70;;
83719;SDS011;73702;49.668;8.544;2024-03-07T11:28:28;36.70;;;11.40;;
83719;SDS011;73702;49.668;8.544;2024-03-07T11:31:06;35.25;;;10.75;;
83719;SDS011;73702;49.668;8.544;2024-03-07T11:33:32;47.10;;;12.73;;
83719;SDS011;73702;49.668;8.544;2024-03-07T11:35:59;27.38;;;10.88;;
83719;SDS011;73702;49.668;8.544;2024-03-07T11:38:30;34.63;;;11.55;;
83719;SDS011;73702;49.668;8.544;2024-03-07T11:40:59;31.27;;;9.93;;
83719;SDS011;73702;49.668;8.544;2024-03-07T11:43:26;33.40;;;8.80;;
83719;SDS011;73702;49.668;8.544;2024-03-07T11:45:53;30.70;;;8.95;;
83719;SDS011;73702;49.668;8.544;2024-03-07T11:48:19;30.48;;;9.75;;
83719;SDS011;73702;49.668;8.544;2024-03-07T11:50:47;42.25;;;10.93;;
83719;SDS011;73702;49.668;8.544;2024-03-07T11:53:13;38.60;;;10.93;;
83719;SDS011;73702;49.668;8.544;2024-03-07T11:55:40;44.05;;;11.00;;
83719;SDS011;73702;49.668;8.544;2024-03-07T11:58:09;32.30;;;9.05;;
83719;SDS011;73702;49.668;8.544;2024-03-07T12:00:35;38.97;;;9.55;;
83719;SDS011;73702;49.668;8.544;2024-03-07T12:03:02;23.00;;;7.38;;
83719;SDS011;73702;49.668;8.544;2024-03-07T12:05:31;39.50;;;9.05;;
83719;SDS011;73702;49.668;8.544;2024-03-07T12:07:59;25.90;;;8.25;;
83719;SDS011;73702;49.668;8.544;2024-03-07T12:10:25;81.25;;;13.07;;
83719;SDS011;73702;49.668;8.544;2024-03-07T12:12:52;30.48;;;8.50;;
83719;SDS011;73702;49.668;8.544;2024-03-07T12:15:18;25.48;;;8.27;;
83719;SDS011;73702;49.668;8.544;2024-03-07T12:17:45;35.40;;;9.45;;
83719;SDS011;73702;49.668;8.544;2024-03-07T12:20:12;32.72;;;8.43;;
83719;SDS011;73702;49.668;8.544;2024-03-07T12:22:38;30.17;;;7.18;;
83719;SDS011;73702;49.668;8.544;2024-03-07T12:25:05;31.15;;;7.43;;
83719;SDS011;73702;49.668;8.544;2024-03-07T12:27:31;30.25;;;6.38;;
83719;SDS011;73702;49.668;8.544;2024-03-07T12:29:58;25.98;;;7.72;;
83719;SDS011;73702;49.668;8.544;2024-03-07T12:32:24;22.30;;;7.13;;
83719;SDS011;73702;49.668;8.544;2024-03-07T12:34:51;36.85;;;8.50;;
83719;SDS011;73702;49.668;8.544;2024-03-07T12:37:18;28.90;;;7.95;;
83719;SDS011;73702;49.668;8.544;2024-03-07T12:39:44;41.60;;;9.55;;
83719;SDS011;73702;49.668;8.544;2024-03-07T12:42:17;30.15;;;7.78;;
83719;SDS011;73702;49.668;8.544;2024-03-07T12:44:44;40.63;;;9.23;;
83719;SDS011;73702;49.668;8.544;2024-03-07T12:47:11;24.80;;;7.35;;
83719;SDS011;73702;49.668;8.544;2024-03-07T12:49:38;24.45;;;6.07;;
83719;SDS011;73702;49.668;8.544;2024-03-07T12:52:05;26.48;;;7.80;;
83719;SDS011;73702;49.668;8.544;2024-03-07T12:54:31;27.30;;;7.13;;
83719;SDS011;73702;49.668;8.544;2024-03-07T12:56:58;28.10;;;7.97;;
83719;SDS011;73702;49.668;8.544;2024-03-07T12:59:24;20.38;;;7.10;;
83719;SDS011;73702;49.668;8.544;2024-03-07T13:01:51;39.10;;;8.25;;
83719;SDS011;73702;49.668;8.544;2024-03-07T13:04:18;27.60;;;8.27;;
83719;SDS011;73702;49.668;8.544;2024-03-07T13:06:44;41.40;;;8.85;;
83719;SDS011;73702;49.668;8.544;2024-03-07T13:09:11;28.67;;;8.38;;
83719;SDS011;73702;49.668;8.544;2024-03-07T13:11:38;21.50;;;7.82;;
83719;SDS011;73702;49.668;8.544;2024-03-07T13:14:04;34.38;;;9.45;;
83719;SDS011;73702;49.668;8.544;2024-03-07T13:16:31;34.95;;;8.27;;
83719;SDS011;73702;49.668;8.544;2024-03-07T13:21:25;29.90;;;8.93;;
83719;SDS011;73702;49.668;8.544;2024-03-07T13:23:51;36.83;;;9.95;;
83719;SDS011;73702;49.668;8.544;2024-03-07T13:26:21;26.23;;;9.07;;
83719;SDS011;73702;49.668;8.544;2024-03-07T13:28:49;28.33;;;9.35;;
83719;SDS011;73702;49.668;8.544;2024-03-07T13:31:15;28.50;;;8.38;;
83719;SDS011;73702;49.668;8.544;2024-03-07T13:33:41;23.75;;;8.48;;
83719;SDS011;73702;49.668;8.544;2024-03-07T13:36:08;28.58;;;9.05;;
83719;SDS011;73702;49.668;8.544;2024-03-07T13:38:35;19.85;;;6.63;;
83719;SDS011;73702;49.668;8.544;2024-03-07T13:41:02;27.58;;;8.13;;
83719;SDS011;73702;49.668;8.544;2024-03-07T13:43:29;28.85;;;7.75;;
83719;SDS011;73702;49.668;8.544;2024-03-07T13:45:55;29.33;;;8.55;;
83719;SDS011;73702;49.668;8.544;2024-03-07T13:48:22;35.05;;;9.43;;
83719;SDS011;73702;49.668;8.544;2024-03-07T13:50:48;28.02;;;7.97;;
83719;SDS011;73702;49.668;8.544;2024-03-07T13:53:24;21.83;;;7.75;;
83719;SDS011;73702;49.668;8.544;2024-03-07T13:55:53;23.33;;;7.22;;
83719;SDS011;73702;49.668;8.544;2024-03-07T14:01:02;30.52;;;8.50;;
83719;SDS011;73702;49.668;8.544;2024-03-07T14:04:14;31.90;;;9.55;;
83719;SDS011;73702;49.668;8.544;2024-03-07T14:06:50;20.17;;;7.55;;
83719;SDS011;73702;49.668;8.544;2024-03-07T14:09:33;23.58;;;7.95;;
83719;SDS011;73702;49.668;8.544;2024-03-07T14:23:01;33.78;;;9.23;;
83719;SDS011;73702;49.668;8.544;2024-03-07T14:28:11;32.20;;;8.98;;
83719;SDS011;73702;49.668;8.544;2024-03-07T14:30:55;31.52;;;9.10;;
83719;SDS011;73702;49.668;8.544;2024-03-07T14:33:25;28.45;;;8.30;;
83719;SDS011;73702;49.668;8.544;2024-03-07T14:36:00;32.95;;;8.43;;
83719;SDS011;73702;49.668;8.544;2024-03-07T14:38:28;24.70;;;7.53;;
83719;SDS011;73702;49.668;8.544;2024-03-07T14:40:54;28.75;;;8.40;;
83719;SDS011;73702;49.668;8.544;2024-03-07T14:43:21;35.40;;;8.68;;
83719;SDS011;73702;49.668;8.544;2024-03-07T14:45:48;35.38;;;8.80;;
83719;SDS011;73702;49.668;8.544;2024-03-07T14:48:16;28.90;;;7.55;;
83719;SDS011;73702;49.668;8.544;2024-03-07T14:50:43;28.88;;;8.23;;
83719;SDS011;73702;49.668;8.544;2024-03-07T14:53:11;31.52;;;7.78;;